Time;durP1;ratioP1;P1;durP2;ratioP2;P2;SDS_P1;SDS_P2;PMS_P1;PMS_P2;Temp;Humidity;BMP_temperature;BMP_pressure;BME280_temperature;BME280_humidity;BME280_pressure;Samples;Min_cycle;Max_cycle;Signal;HPM_P1;HPM_P2
2022/10/25 00:02:13;;;;;;;8.65;7.95;;;;;;;;;;4984918;28;20108;-75
2022/10/25 00:04:39;;;;;;;8.50;7.90;;;;;;;;;;4984665;28;20038;-72
2022/10/25 00:07:04;;;;;;;8.20;7.70;;;;;;;;;;4983909;28;20027;-74
2022/10/25 00:09:30;;;;;;;8.40;7.80;;;;;;;;;;4984576;28;20050;-74
2022/10/25 00:11:56;;;;;;;10.68;7.97;;;;;;;;;;4985138;28;20545;-73
2022/10/25 00:14:21;;;;;;;8.90;8.20;;;;;;;;;;4985676;28;20042;-74
2022/10/25 00:16:47;;;;;;;8.82;7.70;;;;;;;;;;4987218;28;20045;-74
2022/10/25 00:19:13;;;;;;;8.38;7.78;;;;;;;;;;4983207;28;20076;-74
2022/10/25 00:21:39;;;;;;;9.32;8.73;;;;;;;;;;4985545;28;20114;-74
2022/10/25 00:24:05;;;;;;;8.20;7.70;;;;;;;;;;4987241;28;20508;-74
2022/10/25 00:26:30;;;;;;;8.60;8.00;;;;;;;;;;4986912;28;20034;-74
2022/10/25 00:28:58;;;;;;;8.90;8.10;;;;;;;;;;4982504;28;20478;-74
2022/10/25 00:31:23;;;;;;;9.43;8.45;;;;;;;;;;4990117;28;20054;-74
2022/10/25 00:33:50;;;;;;;9.35;8.65;;;;;;;;;;4987699;28;20043;-74
2022/10/25 00:36:24;;;;;;;9.52;8.68;;;;;;;;;;4990015;28;20034;-74
2022/10/25 00:38:49;;;;;;;9.10;8.50;;;;;;;;;;4991302;28;20038;-74
2022/10/25 00:41:18;;;;;;;11.80;8.65;;;;;;;;;;4991146;28;20034;-74
2022/10/25 00:43:52;;;;;;;8.90;8.30;;;;;;;;;;4991359;28;20038;-74
2022/10/25 00:46:22;;;;;;;9.40;8.50;;;;;;;;;;4988238;28;20310;-74
2022/10/25 00:49:02;;;;;;;;;;;;;;;;;;4990811;28;20074;-74
2022/10/25 00:51:40;;;;;;;14.13;10.65;;;;;;;;;;4987703;28;19925;-73
2022/10/25 00:54:07;;;;;;;12.27;10.05;;;;;;;;;;4988725;28;20037;-74
2022/10/25 00:56:37;;;;;;;16.35;12.15;;;;;;;;;;4989043;28;20042;-74
2022/10/25 00:59:07;;;;;;;14.85;11.50;;;;;;;;;;4990068;28;20447;-74
2022/10/25 01:01:32;;;;;;;11.35;10.25;;;;;;;;;;4990321;28;20042;-73
2022/10/25 01:04:08;;;;;;;10.43;9.40;;;;;;;;;;4980765;28;20026;-74
2022/10/25 01:06:37;;;;;;;9.77;8.98;;;;;;;;;;4990705;28;20042;-73
2022/10/25 01:09:05;;;;;;;9.57;8.88;;;;;;;;;;4988561;28;20081;-73
2022/10/25 01:11:31;;;;;;;11.77;10.60;;;;;;;;;;4987529;28;20407;-74
2022/10/25 01:13:57;;;;;;;10.98;10.00;;;;;;;;;;4989734;28;20285;-73
2022/10/25 01:16:41;;;;;;;10.32;9.43;;;;;;;;;;4989057;28;20038;-73
2022/10/25 01:19:35;;;;;;;10.95;9.88;;;;;;;;;;4986197;28;20046;-74
2022/10/25 01:22:10;;;;;;;11.15;10.05;;;;;;;;;;4989020;28;20145;-74
2022/10/25 01:24:50;;;;;;;10.27;9.45;;;;;;;;;;4989248;28;20042;-74
2022/10/25 01:28:13;;;;;;;10.32;9.45;;;;;;;;;;4986340;28;20038;-73
2022/10/25 01:31:15;;;;;;;10.65;9.85;;;;;;;;;;4966703;28;20042;-74
2022/10/25 01:34:08;;;;;;;9.82;9.13;;;;;;;;;;4969103;28;20118;-73
2022/10/25 01:36:51;;;;;;;10.85;9.75;;;;;;;;;;4967607;28;20106;-73
2022/10/25 01:39:31;;;;;;;10.52;9.63;;;;;;;;;;4968686;28;20074;-74
2022/10/25 01:42:22;;;;;;;10.43;9.35;;;;;;;;;;4965485;28;20632;-74
2022/10/25 01:45:14;;;;;;;9.63;8.93;;;;;;;;;;4967224;28;20249;-74
2022/10/25 01:48:23;;;;;;;9.70;8.93;;;;;;;;;;4971296;28;20042;-74
2022/10/25 01:50:48;;;;;;;10.23;9.43;;;;;;;;;;4909589;29;20455;-74
2022/10/25 01:53:14;;;;;;;10.60;9.57;;;;;;;;;;4909205;29;20044;-74
2022/10/25 01:55:51;;;;;;;10.45;9.68;;;;;;;;;;4909710;29;20146;-73
2022/10/25 01:58:17;;;;;;;10.93;10.02;;;;;;;;;;4908715;29;20048;-74
2022/10/25 02:01:10;;;;;;;12.63;10.85;;;;;;;;;;4914747;29;20087;-73
2022/10/25 02:03:43;;;;;;;12.88;11.00;;;;;;;;;;4910515;29;20068;-74
2022/10/25 02:06:21;;;;;;;10.73;9.68;;;;;;;;;;4922587;29;20531;-74
2022/10/25 02:08:53;;;;;;;14.73;9.98;;;;;;;;;;4925045;29;20073;-74
2022/10/25 02:11:23;;;;;;;12.45;11.07;;;;;;;;;;4927733;29;20227;-73
2022/10/25 02:14:04;;;;;;;;;;;;;;;;;;4928193;29;20086;-74
2022/10/25 02:16:36;;;;;;;9.65;8.93;;;;;;;;;;4927383;29;19918;-73
2022/10/25 02:19:05;;;;;;;10.48;9.32;;;;;;;;;;4928081;29;20110;-74
2022/10/25 02:21:33;;;;;;;9.98;9.10;;;;;;;;;;4928129;29;20043;-74
2022/10/25 02:24:02;;;;;;;10.40;9.40;;;;;;;;;;4938747;28;20449;-73
2022/10/25 02:26:28;;;;;;;11.20;9.30;;;;;;;;;;4986420;28;20124;-74
2022/10/25 02:28:55;;;;;;;10.57;9.75;;;;;;;;;;4986116;28;20161;-73
2022/10/25 02:31:23;;;;;;;11.48;10.27;;;;;;;;;;4986552;28;20117;-74
2022/10/25 02:33:49;;;;;;;11.48;10.48;;;;;;;;;;4986597;28;20034;-74
2022/10/25 02:36:17;;;;;;;11.48;10.30;;;;;;;;;;4985690;28;20046;-73
2022/10/25 02:38:43;;;;;;;9.80;8.90;;;;;;;;;;4986919;28;20038;-74
2022/10/25 02:41:09;;;;;;;12.25;10.40;;;;;;;;;;4986898;28;20041;-73
2022/10/25 02:43:35;;;;;;;11.80;10.35;;;;;;;;;;4984147;28;20125;-74
2022/10/25 02:46:06;;;;;;;11.30;10.30;;;;;;;;;;4987260;28;20125;-74
2022/10/25 02:48:31;;;;;;;11.07;10.18;;;;;;;;;;4988639;28;20833;-74
2022/10/25 02:50:57;;;;;;;11.35;10.30;;;;;;;;;;4985559;28;20031;-73
2022/10/25 02:53:22;;;;;;;10.98;9.95;;;;;;;;;;4980360;28;20034;-74
2022/10/25 02:55:57;;;;;;;15.63;11.77;;;;;;;;;;4986821;28;20121;-74
2022/10/25 02:58:23;;;;;;;14.00;10.75;;;;;;;;;;4985815;28;20034;-73
2022/10/25 03:00:48;;;;;;;15.43;11.40;;;;;;;;;;4986680;28;20081;-73
2022/10/25 03:03:13;;;;;;;10.98;10.18;;;;;;;;;;4985417;28;20084;-74
2022/10/25 03:05:39;;;;;;;11.18;9.95;;;;;;;;;;4988017;28;20084;-73
2022/10/25 03:08:04;;;;;;;12.45;10.30;;;;;;;;;;4987156;28;20038;-73
2022/10/25 03:10:30;;;;;;;31.48;11.45;;;;;;;;;;4982936;28;20505;-74
2022/10/25 03:12:56;;;;;;;12.05;10.98;;;;;;;;;;4987201;28;20073;-74
2022/10/25 03:15:21;;;;;;;24.63;10.65;;;;;;;;;;4987668;28;20065;-73
2022/10/25 03:17:47;;;;;;;12.13;10.85;;;;;;;;;;4984757;28;20057;-73
2022/10/25 03:20:12;;;;;;;11.77;10.43;;;;;;;;;;4986172;28;20043;-74
2022/10/25 03:22:38;;;;;;;13.38;10.55;;;;;;;;;;4986799;28;20073;-73
2022/10/25 03:25:04;;;;;;;12.30;11.10;;;;;;;;;;4986819;28;20073;-73
2022/10/25 03:27:34;;;;;;;14.35;10.73;;;;;;;;;;4986241;28;20034;-74
2022/10/25 03:30:00;;;;;;;10.38;9.57;;;;;;;;;;4988181;28;20100;-73
2022/10/25 03:32:25;;;;;;;10.85;9.77;;;;;;;;;;4988004;28;20277;-73
2022/10/25 03:34:51;;;;;;;10.90;9.90;;;;;;;;;;4988245;28;20105;-73
2022/10/25 03:37:16;;;;;;;10.85;9.88;;;;;;;;;;4982521;28;20050;-73
2022/10/25 03:39:42;;;;;;;9.98;9.27;;;;;;;;;;4987181;28;20426;-73
2022/10/25 03:42:07;;;;;;;10.43;9.63;;;;;;;;;;4986402;28;20445;-73
2022/10/25 03:44:33;;;;;;;10.50;9.70;;;;;;;;;;4987901;28;20034;-73
2022/10/25 03:46:59;;;;;;;11.75;10.73;;;;;;;;;;4985992;28;20034;-73
2022/10/25 03:49:25;;;;;;;14.45;13.25;;;;;;;;;;4987649;28;20062;-73
2022/10/25 03:51:51;;;;;;;13.00;11.68;;;;;;;;;;4985968;28;20030;-73
2022/10/25 03:54:16;;;;;;;14.27;12.63;;;;;;;;;;4982994;28;20394;-72
2022/10/25 03:56:42;;;;;;;12.80;11.70;;;;;;;;;;4982486;28;20357;-73
2022/10/25 03:59:07;;;;;;;11.40;10.40;;;;;;;;;;4987021;28;20125;-72
2022/10/25 04:01:33;;;;;;;10.88;10.05;;;;;;;;;;4985464;28;20121;-72
2022/10/25 04:03:58;;;;;;;10.88;9.90;;;;;;;;;;4984595;28;20048;-73
2022/10/25 04:06:24;;;;;;;11.25;10.35;;;;;;;;;;4982815;28;20052;-73
2022/10/25 04:08:49;;;;;;;10.30;9.48;;;;;;;;;;4983358;28;20089;-73
2022/10/25 04:11:15;;;;;;;11.15;10.25;;;;;;;;;;4986544;28;20094;-73
2022/10/25 04:13:40;;;;;;;10.98;9.15;;;;;;;;;;4986769;28;20061;-72
2022/10/25 04:16:07;;;;;;;10.93;9.93;;;;;;;;;;4985191;28;20363;-73
2022/10/25 04:18:33;;;;;;;12.35;9.35;;;;;;;;;;4980233;28;20042;-73
2022/10/25 04:20:58;;;;;;;11.05;10.18;;;;;;;;;;4985477;28;20117;-73
2022/10/25 04:23:24;;;;;;;10.05;9.25;;;;;;;;;;4983023;28;20042;-73
2022/10/25 04:25:49;;;;;;;10.82;9.88;;;;;;;;;;4983016;28;20121;-73
2022/10/25 04:28:15;;;;;;;11.30;10.18;;;;;;;;;;4985429;28;20122;-72
2022/10/25 04:30:41;;;;;;;10.45;9.65;;;;;;;;;;4985007;28;20125;-73
2022/10/25 04:33:07;;;;;;;10.35;9.55;;;;;;;;;;4984674;28;20092;-73
2022/10/25 04:35:32;;;;;;;10.65;9.88;;;;;;;;;;4984845;28;20047;-73
2022/10/25 04:37:58;;;;;;;9.77;8.82;;;;;;;;;;4983555;28;20037;-73
2022/10/25 04:40:24;;;;;;;10.60;9.88;;;;;;;;;;4985590;28;20422;-72
2022/10/25 04:42:49;;;;;;;10.48;9.52;;;;;;;;;;4985851;28;20039;-72
2022/10/25 04:45:15;;;;;;;10.43;9.52;;;;;;;;;;4984337;28;20502;-73
2022/10/25 04:47:40;;;;;;;10.52;9.73;;;;;;;;;;4985996;28;20518;-73
2022/10/25 04:50:06;;;;;;;9.90;9.20;;;;;;;;;;4977581;28;20130;-73
2022/10/25 04:52:32;;;;;;;10.32;9.63;;;;;;;;;;4984421;28;20118;-73
2022/10/25 04:54:58;;;;;;;9.98;9.27;;;;;;;;;;4986726;28;20038;-73
2022/10/25 04:57:24;;;;;;;10.50;9.70;;;;;;;;;;4985077;28;20088;-73
2022/10/25 04:59:51;;;;;;;11.00;9.88;;;;;;;;;;4986143;28;20038;-73
2022/10/25 05:02:17;;;;;;;10.57;9.68;;;;;;;;;;4986644;28;20038;-71
2022/10/25 05:04:42;;;;;;;13.95;10.65;;;;;;;;;;4987044;28;20046;-74
2022/10/25 05:07:08;;;;;;;12.38;11.23;;;;;;;;;;4983791;28;20038;-73
2022/10/25 05:09:33;;;;;;;17.23;12.07;;;;;;;;;;4986776;28;20034;-73
2022/10/25 05:11:59;;;;;;;12.38;11.18;;;;;;;;;;4986880;28;20077;-73
2022/10/25 05:14:25;;;;;;;11.38;10.48;;;;;;;;;;4981708;28;20129;-74
2022/10/25 05:16:50;;;;;;;11.45;10.48;;;;;;;;;;4986480;28;20042;-73
2022/10/25 05:19:16;;;;;;;14.55;10.95;;;;;;;;;;4990880;28;20041;-73
2022/10/25 05:21:41;;;;;;;11.18;10.18;;;;;;;;;;4987913;28;20038;-73
2022/10/25 05:24:07;;;;;;;15.98;12.00;;;;;;;;;;4987443;28;20046;-73
2022/10/25 05:26:33;;;;;;;14.13;10.85;;;;;;;;;;4986259;28;20042;-71
2022/10/25 05:28:58;;;;;;;18.95;11.10;;;;;;;;;;4985633;28;20030;-73
2022/10/25 05:31:29;;;;;;;11.38;10.15;;;;;;;;;;4982840;28;20633;-73
2022/10/25 05:33:58;;;;;;;12.18;10.65;;;;;;;;;;4982080;28;20433;-73
2022/10/25 05:36:24;;;;;;;;;;;;;;;;;;4988221;28;20117;-74
2022/10/25 05:38:50;;;;;;;10.20;9.27;;;;;;;;;;4990115;28;19921;-73
2022/10/25 05:41:17;;;;;;;11.45;10.32;;;;;;;;;;4986086;28;20039;-75
2022/10/25 05:43:43;;;;;;;13.25;9.85;;;;;;;;;;4990121;28;20494;-77
2022/10/25 05:46:14;;;;;;;10.25;9.55;;;;;;;;;;4990587;28;20036;-77
2022/10/25 05:48:40;;;;;;;11.02;10.10;;;;;;;;;;4991186;28;20069;-78
2022/10/25 05:51:22;;;;;;;10.88;10.07;;;;;;;;;;4988284;28;20066;-77
2022/10/25 05:53:50;;;;;;;10.35;9.57;;;;;;;;;;4991059;28;20030;-77
2022/10/25 05:56:17;;;;;;;12.13;10.43;;;;;;;;;;4990731;28;20434;-77
2022/10/25 05:58:43;;;;;;;11.55;10.55;;;;;;;;;;4989432;28;20117;-79
2022/10/25 06:01:10;;;;;;;11.43;10.57;;;;;;;;;;5004141;28;20039;-79
2022/10/25 06:03:37;;;;;;;12.88;9.60;;;;;;;;;;5003800;28;20072;-79
2022/10/25 06:06:05;;;;;;;27.85;25.13;;;;;;;;;;5002741;28;20038;-79
2022/10/25 06:08:31;;;;;;;33.90;29.33;;;;;;;;;;4997886;28;20038;-79
2022/10/25 06:11:04;;;;;;;15.82;11.93;;;;;;;;;;5003269;28;20061;-78
2022/10/25 06:13:30;;;;;;;12.60;11.35;;;;;;;;;;5000240;28;20054;-78
2022/10/25 06:15:56;;;;;;;14.82;11.70;;;;;;;;;;5001062;28;20038;-79
2022/10/25 06:18:22;;;;;;;36.65;27.88;;;;;;;;;;5002701;28;20041;-79
2022/10/25 06:20:47;;;;;;;12.15;11.10;;;;;;;;;;5002717;28;20050;-79
2022/10/25 06:23:13;;;;;;;13.88;12.57;;;;;;;;;;5000145;28;20065;-79
2022/10/25 06:25:38;;;;;;;15.27;13.38;;;;;;;;;;5002168;28;20038;-79
2022/10/25 06:28:04;;;;;;;18.75;14.60;;;;;;;;;;5002194;28;20042;-79
2022/10/25 06:30:33;;;;;;;20.23;17.80;;;;;;;;;;4999503;28;20034;-78
2022/10/25 06:32:58;;;;;;;12.35;11.35;;;;;;;;;;5005858;28;20129;-78
2022/10/25 06:35:24;;;;;;;13.02;11.75;;;;;;;;;;5005091;28;20098;-79
2022/10/25 06:37:49;;;;;;;14.57;13.00;;;;;;;;;;5001114;28;20042;-79
2022/10/25 06:40:15;;;;;;;12.85;11.85;;;;;;;;;;5002476;28;20293;-78
2022/10/25 06:42:41;;;;;;;15.45;13.93;;;;;;;;;;5003285;28;20038;-79
2022/10/25 06:45:07;;;;;;;12.82;11.63;;;;;;;;;;5002716;28;21320;-78
2022/10/25 06:47:33;;;;;;;12.90;11.88;;;;;;;;;;4999668;28;20048;-79
2022/10/25 06:49:58;;;;;;;12.32;11.43;;;;;;;;;;5003389;28;20093;-79
2022/10/25 06:52:24;;;;;;;12.73;11.63;;;;;;;;;;5003957;28;20041;-79
2022/10/25 06:54:49;;;;;;;10.90;10.10;;;;;;;;;;5000220;28;20042;-79
2022/10/25 06:57:15;;;;;;;11.20;10.30;;;;;;;;;;4999480;28;20266;-79
2022/10/25 06:59:40;;;;;;;12.38;10.90;;;;;;;;;;5001000;28;20038;-79
2022/10/25 07:02:07;;;;;;;12.48;10.32;;;;;;;;;;4998748;28;20053;-79
2022/10/25 07:04:33;;;;;;;11.63;10.65;;;;;;;;;;4999007;28;20061;-79
2022/10/25 07:06:58;;;;;;;15.77;10.43;;;;;;;;;;5001912;28;20042;-78
2022/10/25 07:09:24;;;;;;;12.10;11.10;;;;;;;;;;4997778;28;20034;-79
2022/10/25 07:11:50;;;;;;;11.95;10.82;;;;;;;;;;4996312;28;20038;-78
2022/10/25 07:14:16;;;;;;;11.18;10.38;;;;;;;;;;4998017;28;20036;-78
2022/10/25 07:16:41;;;;;;;11.82;10.73;;;;;;;;;;4999331;28;20027;-78
2022/10/25 07:19:08;;;;;;;10.35;9.52;;;;;;;;;;5001552;28;20057;-79
2022/10/25 07:21:34;;;;;;;13.18;11.88;;;;;;;;;;4991638;28;20073;-79
2022/10/25 07:24:00;;;;;;;11.77;10.88;;;;;;;;;;5000797;28;20034;-78
2022/10/25 07:26:35;;;;;;;11.93;11.02;;;;;;;;;;5001113;28;20100;-78
2022/10/25 07:29:01;;;;;;;11.90;10.93;;;;;;;;;;4999006;28;20520;-79
2022/10/25 07:31:36;;;;;;;11.80;10.63;;;;;;;;;;5001565;28;20034;-78
2022/10/25 07:34:03;;;;;;;11.40;10.60;;;;;;;;;;4997778;28;20398;-78
2022/10/25 07:36:29;;;;;;;12.25;11.35;;;;;;;;;;4998172;28;20034;-78
2022/10/25 07:38:55;;;;;;;11.40;10.50;;;;;;;;;;4996325;28;20030;-79
2022/10/25 07:41:22;;;;;;;11.00;10.00;;;;;;;;;;4995034;28;20114;-78
2022/10/25 07:43:48;;;;;;;10.93;10.13;;;;;;;;;;4993276;28;20309;-78
2022/10/25 07:46:13;;;;;;;10.40;9.38;;;;;;;;;;4988825;28;20034;-78
2022/10/25 07:48:39;;;;;;;9.90;9.13;;;;;;;;;;4989279;28;20463;-79
2022/10/25 07:51:13;;;;;;;10.45;9.63;;;;;;;;;;4988450;28;20040;-78
2022/10/25 07:53:39;;;;;;;10.35;9.40;;;;;;;;;;4988841;28;20512;-78
2022/10/25 07:56:05;;;;;;;10.30;9.57;;;;;;;;;;4985006;28;20038;-77
2022/10/25 07:58:31;;;;;;;9.88;9.18;;;;;;;;;;4988080;28;20036;-77
2022/10/25 08:01:02;;;;;;;9.68;9.02;;;;;;;;;;4987002;28;20117;-77
2022/10/25 08:03:27;;;;;;;10.50;9.65;;;;;;;;;;4984446;28;20034;-77
2022/10/25 08:05:53;;;;;;;9.85;9.00;;;;;;;;;;4988022;28;20045;-77
2022/10/25 08:08:22;;;;;;;10.13;9.32;;;;;;;;;;4988321;28;20080;-77
2022/10/25 08:10:48;;;;;;;14.82;13.05;;;;;;;;;;4987564;28;20034;-77
2022/10/25 08:13:14;;;;;;;10.25;9.40;;;;;;;;;;4985783;28;20109;-77
2022/10/25 08:15:39;;;;;;;11.60;10.65;;;;;;;;;;4987775;28;20022;-77
2022/10/25 08:18:08;;;;;;;9.40;8.70;;;;;;;;;;4986544;28;20384;-77
2022/10/25 08:20:34;;;;;;;10.95;9.95;;;;;;;;;;4985636;28;20042;-76
2022/10/25 08:23:00;;;;;;;11.25;10.35;;;;;;;;;;4984778;28;20038;-76
2022/10/25 08:25:27;;;;;;;11.70;10.80;;;;;;;;;;4988309;28;20037;-76
2022/10/25 08:27:52;;;;;;;10.45;9.60;;;;;;;;;;4987951;28;20114;-76
2022/10/25 08:30:18;;;;;;;10.23;9.32;;;;;;;;;;4986126;28;20501;-76
2022/10/25 08:32:44;;;;;;;50.67;28.67;;;;;;;;;;4985424;28;20030;-77
2022/10/25 08:35:09;;;;;;;12.40;10.18;;;;;;;;;;4987988;28;20038;-76
2022/10/25 08:37:35;;;;;;;10.20;9.40;;;;;;;;;;4987320;28;20040;-76
2022/10/25 08:40:01;;;;;;;10.80;9.85;;;;;;;;;;4983921;28;20241;-76
2022/10/25 08:42:57;;;;;;;19.20;12.25;;;;;;;;;;4987321;28;20034;-76
2022/10/25 08:45:32;;;;;;;14.52;13.02;;;;;;;;;;4987938;28;20053;-76
2022/10/25 08:47:58;;;;;;;13.23;11.77;;;;;;;;;;4983654;28;20034;-76
2022/10/25 08:50:39;;;;;;;10.07;9.27;;;;;;;;;;4986160;28;20046;-76
2022/10/25 08:53:11;;;;;;;12.23;11.07;;;;;;;;;;4990548;28;20026;-76
2022/10/25 08:55:41;;;;;;;10.50;9.52;;;;;;;;;;4990769;28;20038;-75
2022/10/25 08:58:30;;;;;;;12.85;11.55;;;;;;;;;;4985682;28;20049;-76
2022/10/25 09:01:00;;;;;;;11.00;10.00;;;;;;;;;;4982156;28;20049;-75
2022/10/25 09:03:26;;;;;;;9.85;8.93;;;;;;;;;;4990551;28;20037;-75
2022/10/25 09:06:05;;;;;;;10.15;9.00;;;;;;;;;;4988327;28;20038;-75
2022/10/25 09:08:54;;;;;;;9.40;8.70;;;;;;;;;;4989998;28;20038;-75
2022/10/25 09:11:47;;;;;;;11.38;9.05;;;;;;;;;;4985148;28;20108;-75
2022/10/25 09:14:35;;;;;;;9.93;8.05;;;;;;;;;;4989214;28;20027;-75
2022/10/25 09:17:04;;;;;;;8.85;8.15;;;;;;;;;;4988218;28;20425;-75
2022/10/25 09:19:54;;;;;;;9.88;8.18;;;;;;;;;;4979260;28;20034;-76
2022/10/25 09:22:29;;;;;;;9.32;8.60;;;;;;;;;;4987340;28;20042;-74
2022/10/25 09:25:21;;;;;;;9.15;8.30;;;;;;;;;;4988702;28;20113;-74
2022/10/25 09:27:56;;;;;;;9.27;8.48;;;;;;;;;;4984075;28;20047;-74
2022/10/25 09:30:21;;;;;;;10.77;8.00;;;;;;;;;;4985716;28;20129;-74
2022/10/25 09:32:55;;;;;;;10.20;8.15;;;;;;;;;;4988876;28;20624;-74
2022/10/25 09:35:33;;;;;;;8.77;8.02;;;;;;;;;;4990206;28;20527;-75
2022/10/25 09:38:08;;;;;;;9.15;8.00;;;;;;;;;;4985751;28;20038;-75
2022/10/25 09:40:45;;;;;;;9.38;8.57;;;;;;;;;;4987572;28;21034;-75
2022/10/25 09:43:22;;;;;;;9.32;8.38;;;;;;;;;;4983785;28;20103;-74
2022/10/25 09:46:00;;;;;;;9.60;8.70;;;;;;;;;;4988959;28;20041;-75
2022/10/25 09:48:48;;;;;;;10.55;7.97;;;;;;;;;;4987768;28;20395;-74
2022/10/25 09:51:26;;;;;;;10.02;8.07;;;;;;;;;;4984756;28;20074;-74
2022/10/25 09:53:53;;;;;;;9.15;8.32;;;;;;;;;;4987736;28;20122;-74
2022/10/25 09:56:18;;;;;;;8.57;7.97;;;;;;;;;;4989590;28;20069;-75
2022/10/25 09:58:46;;;;;;;9.98;8.23;;;;;;;;;;4988504;28;20066;-75
2022/10/25 10:01:27;;;;;;;9.75;8.43;;;;;;;;;;4988699;28;20030;-75
2022/10/25 10:04:01;;;;;;;8.50;7.70;;;;;;;;;;4988535;28;20474;-75
2022/10/25 10:06:34;;;;;;;8.52;7.78;;;;;;;;;;4989317;28;20034;-74
2022/10/25 10:09:09;;;;;;;8.55;7.65;;;;;;;;;;4984661;28;20038;-74
2022/10/25 10:11:35;;;;;;;11.00;7.63;;;;;;;;;;4977643;28;20416;-74
2022/10/25 10:14:09;;;;;;;8.48;7.70;;;;;;;;;;4986234;28;20270;-74
2022/10/25 10:16:41;;;;;;;9.05;7.68;;;;;;;;;;4988141;28;20038;-75
2022/10/25 10:19:28;;;;;;;8.38;7.68;;;;;;;;;;4985013;28;20114;-75
2022/10/25 10:22:05;;;;;;;8.65;8.05;;;;;;;;;;4987703;28;20038;-75
2022/10/25 10:24:35;;;;;;;8.93;8.00;;;;;;;;;;4988761;28;20026;-76
2022/10/25 10:27:05;;;;;;;8.48;7.80;;;;;;;;;;4987922;28;20482;-74
2022/10/25 10:29:36;;;;;;;8.35;7.68;;;;;;;;;;4985915;28;20042;-75
2022/10/25 10:32:30;;;;;;;8.18;7.57;;;;;;;;;;4988266;28;20034;-76
2022/10/25 10:34:57;;;;;;;9.77;8.77;;;;;;;;;;4986197;28;20062;-75
2022/10/25 10:37:24;;;;;;;7.80;6.72;;;;;;;;;;4988481;28;20117;-75
2022/10/25 10:39:53;;;;;;;8.88;7.20;;;;;;;;;;4988017;28;20486;-75
2022/10/25 10:42:19;;;;;;;9.27;7.93;;;;;;;;;;4987165;28;20026;-75
2022/10/25 10:45:01;;;;;;;8.35;7.53;;;;;;;;;;4987364;28;20410;-75
2022/10/25 10:47:32;;;;;;;11.38;7.90;;;;;;;;;;4986995;28;20088;-75
2022/10/25 10:49:58;;;;;;;7.82;7.22;;;;;;;;;;4988882;28;20038;-75
2022/10/25 10:52:32;;;;;;;8.00;7.43;;;;;;;;;;4989112;28;20053;-75
2022/10/25 10:54:59;;;;;;;8.07;7.47;;;;;;;;;;4984793;28;20038;-76
2022/10/25 10:57:34;;;;;;;7.88;7.28;;;;;;;;;;4986710;28;20062;-75
2022/10/25 11:00:01;;;;;;;8.00;7.30;;;;;;;;;;4986160;28;20109;-75
2022/10/25 11:02:38;;;;;;;8.95;7.28;;;;;;;;;;4987326;28;20371;-75
2022/10/25 11:05:16;;;;;;;8.18;7.38;;;;;;;;;;4980738;28;20065;-75
2022/10/25 11:07:42;;;;;;;8.55;7.28;;;;;;;;;;4986398;28;20042;-75
2022/10/25 11:10:18;;;;;;;7.90;7.20;;;;;;;;;;4980724;28;20465;-75
2022/10/25 11:12:44;;;;;;;7.47;6.90;;;;;;;;;;4983610;28;20030;-75
2022/10/25 11:15:14;;;;;;;7.13;6.53;;;;;;;;;;4985893;28;20043;-76
2022/10/25 11:17:52;;;;;;;7.22;6.60;;;;;;;;;;4982681;28;20077;-76
2022/10/25 11:20:26;;;;;;;8.02;7.05;;;;;;;;;;5000107;28;20157;-76
2022/10/25 11:23:06;;;;;;;10.00;7.05;;;;;;;;;;4984836;28;20027;-75
2022/10/25 11:25:55;;;;;;;11.07;7.10;;;;;;;;;;4986306;28;20062;-76
2022/10/25 11:28:39;;;;;;;7.30;6.70;;;;;;;;;;4983263;28;20092;-75
2022/10/25 11:31:25;;;;;;;6.85;6.45;;;;;;;;;;4982771;28;20044;-75
2022/10/25 11:34:27;;;;;;;7.68;6.90;;;;;;;;;;4985175;28;20042;-75
2022/10/25 11:37:13;;;;;;;7.47;6.88;;;;;;;;;;4981256;28;20034;-75
2022/10/25 11:39:50;;;;;;;7.63;7.03;;;;;;;;;;4985354;28;20051;-75
2022/10/25 11:42:27;;;;;;;7.50;6.93;;;;;;;;;;4983297;28;20458;-75
2022/10/25 11:45:28;;;;;;;8.48;7.28;;;;;;;;;;4981045;28;20046;-75
2022/10/25 11:48:15;;;;;;;7.38;6.80;;;;;;;;;;4980509;28;20177;-75
2022/10/25 11:50:48;;;;;;;9.82;6.78;;;;;;;;;;4984789;28;20054;-75
2022/10/25 11:53:31;;;;;;;7.53;6.90;;;;;;;;;;4980512;28;20038;-74
2022/10/25 11:56:29;;;;;;;7.90;7.13;;;;;;;;;;4984049;28;20041;-75
2022/10/25 11:59:17;;;;;;;7.53;7.00;;;;;;;;;;4984871;28;20044;-76
2022/10/25 12:02:10;;;;;;;8.10;7.40;;;;;;;;;;4982516;28;20061;-76
2022/10/25 12:04:45;;;;;;;8.13;7.63;;;;;;;;;;4985055;28;20046;-75
2022/10/25 12:07:10;;;;;;;8.05;7.32;;;;;;;;;;4985523;28;20034;-75
2022/10/25 12:09:49;;;;;;;8.32;7.50;;;;;;;;;;4985504;28;20376;-76
2022/10/25 12:12:19;;;;;;;8.30;7.60;;;;;;;;;;4979317;28;20037;-75
2022/10/25 12:14:50;;;;;;;8.32;7.72;;;;;;;;;;4979329;28;20432;-75
2022/10/25 12:17:29;;;;;;;8.18;7.47;;;;;;;;;;4985408;28;20554;-76
2022/10/25 12:19:58;;;;;;;7.80;7.30;;;;;;;;;;4986285;28;20042;-75
2022/10/25 12:22:29;;;;;;;8.00;7.30;;;;;;;;;;4981417;28;20030;-76
2022/10/25 12:25:07;;;;;;;7.72;7.22;;;;;;;;;;4983152;28;20038;-75
2022/10/25 12:27:33;;;;;;;7.60;7.10;;;;;;;;;;4984649;28;20049;-76
2022/10/25 12:30:13;;;;;;;8.35;7.65;;;;;;;;;;4979453;28;20042;-75
2022/10/25 12:32:51;;;;;;;8.20;7.40;;;;;;;;;;4984285;28;20030;-75
2022/10/25 12:35:28;;;;;;;8.00;7.50;;;;;;;;;;4985109;28;20498;-75
2022/10/25 12:37:57;;;;;;;7.85;7.30;;;;;;;;;;4982491;28;20047;-75
2022/10/25 12:40:24;;;;;;;8.00;7.43;;;;;;;;;;4985494;28;20053;-75
2022/10/25 12:42:55;;;;;;;8.00;7.50;;;;;;;;;;4984552;28;20054;-76
2022/10/25 12:45:36;;;;;;;8.55;7.85;;;;;;;;;;4981900;28;20107;-76
2022/10/25 12:48:20;;;;;;;8.07;7.32;;;;;;;;;;4982035;28;20042;-75
2022/10/25 12:51:05;;;;;;;8.10;7.45;;;;;;;;;;4984592;28;20031;-76
2022/10/25 12:53:52;;;;;;;8.23;7.53;;;;;;;;;;4981918;28;20047;-75
2022/10/25 12:56:50;;;;;;;8.23;7.70;;;;;;;;;;4982403;28;20042;-75
2022/10/25 12:59:29;;;;;;;8.60;8.02;;;;;;;;;;4985510;28;20041;-75
2022/10/25 13:02:20;;;;;;;8.57;7.93;;;;;;;;;;4985151;28;20126;-76
2022/10/25 13:05:07;;;;;;;10.35;7.90;;;;;;;;;;4978861;28;20038;-75
2022/10/25 13:07:35;;;;;;;8.10;7.60;;;;;;;;;;4985858;28;20493;-75
2022/10/25 13:10:22;;;;;;;8.25;7.75;;;;;;;;;;4985285;28;20049;-76
2022/10/25 13:13:06;;;;;;;8.30;7.75;;;;;;;;;;4980361;28;20034;-76
2022/10/25 13:15:50;;;;;;;8.63;8.05;;;;;;;;;;4985052;28;20043;-75
2022/10/25 13:18:31;;;;;;;8.77;7.97;;;;;;;;;;4985805;28;20066;-75
2022/10/25 13:20:58;;;;;;;8.63;7.80;;;;;;;;;;4982906;28;20039;-73
2022/10/25 13:23:42;;;;;;;8.13;7.53;;;;;;;;;;4983581;28;20043;-76
2022/10/25 13:26:13;;;;;;;8.57;7.70;;;;;;;;;;4985062;28;20084;-76
2022/10/25 13:29:25;;;;;;;8.30;7.60;;;;;;;;;;4981949;28;20482;-75
2022/10/25 13:32:03;;;;;;;8.38;7.75;;;;;;;;;;4983823;28;20070;-75
2022/10/25 13:34:30;;;;;;;9.32;8.40;;;;;;;;;;4983547;28;20344;-75
2022/10/25 13:37:01;;;;;;;8.68;8.00;;;;;;;;;;4982978;28;20043;-75
2022/10/25 13:39:29;;;;;;;8.48;7.88;;;;;;;;;;4984886;28;20116;-75
2022/10/25 13:42:08;;;;;;;8.70;8.10;;;;;;;;;;4988292;28;20042;-75
2022/10/25 13:44:36;;;;;;;8.18;7.47;;;;;;;;;;4983590;28;20108;-76
2022/10/25 13:47:02;;;;;;;8.50;7.93;;;;;;;;;;4987930;28;20038;-75
2022/10/25 13:49:39;;;;;;;8.65;7.93;;;;;;;;;;4989041;28;20544;-75
2022/10/25 13:52:23;;;;;;;8.98;8.13;;;;;;;;;;4988465;28;20493;-75
2022/10/25 13:54:52;;;;;;;9.35;8.63;;;;;;;;;;4986411;28;20041;-75
2022/10/25 13:57:48;;;;;;;9.27;8.68;;;;;;;;;;4987714;28;20049;-75
2022/10/25 14:00:20;;;;;;;8.68;7.97;;;;;;;;;;4984955;28;20050;-75
2022/10/25 14:03:07;;;;;;;8.30;7.65;;;;;;;;;;4983112;28;20580;-75
2022/10/25 14:05:54;;;;;;;9.35;7.78;;;;;;;;;;4988494;28;20050;-75
2022/10/25 14:08:31;;;;;;;9.38;8.10;;;;;;;;;;4986624;28;20076;-75
2022/10/25 14:11:06;;;;;;;8.57;7.80;;;;;;;;;;4985431;28;20042;-75
2022/10/25 14:13:50;;;;;;;8.18;7.47;;;;;;;;;;4982466;28;20041;-75
2022/10/25 14:16:25;;;;;;;8.60;7.80;;;;;;;;;;4986349;28;20089;-75
2022/10/25 14:18:53;;;;;;;7.88;7.20;;;;;;;;;;4987388;28;20030;-75
2022/10/25 14:21:19;;;;;;;7.88;7.20;;;;;;;;;;4985965;28;20035;-75
2022/10/25 14:23:48;;;;;;;8.40;7.57;;;;;;;;;;4987053;28;20474;-75
2022/10/25 14:26:15;;;;;;;8.52;7.78;;;;;;;;;;4989007;28;20030;-75
2022/10/25 14:28:40;;;;;;;8.52;7.55;;;;;;;;;;4986639;28;20034;-75
2022/10/25 14:31:10;;;;;;;12.27;7.60;;;;;;;;;;4984404;28;20038;-75
2022/10/25 14:33:49;;;;;;;18.23;7.95;;;;;;;;;;4987858;28;20045;-75
2022/10/25 14:36:27;;;;;;;10.18;7.60;;;;;;;;;;4989475;28;20096;-75
2022/10/25 14:38:52;;;;;;;8.30;7.60;;;;;;;;;;4986626;28;20034;-76
2022/10/25 14:41:30;;;;;;;8.00;7.40;;;;;;;;;;4989331;28;20038;-76
2022/10/25 14:43:56;;;;;;;8.35;7.40;;;;;;;;;;4989130;28;20299;-75
2022/10/25 14:46:24;;;;;;;8.00;7.40;;;;;;;;;;4983689;28;20374;-76
2022/10/25 14:48:55;;;;;;;8.55;7.80;;;;;;;;;;4989093;28;20037;-75
2022/10/25 14:51:26;;;;;;;10.13;7.50;;;;;;;;;;4989239;28;20068;-75
2022/10/25 14:53:56;;;;;;;8.77;7.47;;;;;;;;;;4980643;28;20030;-76
2022/10/25 14:56:44;;;;;;;8.05;7.43;;;;;;;;;;4989332;28;20498;-76
2022/10/25 14:59:25;;;;;;;8.02;7.22;;;;;;;;;;4977898;28;20434;-76
2022/10/25 15:02:18;;;;;;;8.05;7.45;;;;;;;;;;4986405;28;20042;-76